createdAt,value
2022-08-26T00:04:38.184Z,22.37
2022-08-26T00:09:41.553Z,22.34
2022-08-26T00:14:50.402Z,22.29
2022-08-26T00:19:53.808Z,22.16
2022-08-26T00:24:57.016Z,22.03
2022-08-26T00:30:09.971Z,21.98
2022-08-26T00:35:14.615Z,21.91
2022-08-26T00:40:27.223Z,21.95
2022-08-26T00:45:45.441Z,21.85
2022-08-26T00:50:56.749Z,21.78
2022-08-26T00:56:11.785Z,21.74
2022-08-26T01:01:18.737Z,21.72
2022-08-26T01:06:27.524Z,21.69
2022-08-26T01:11:32.705Z,21.61
2022-08-26T01:16:37.373Z,21.56
2022-08-26T01:22:22.800Z,21.52
2022-08-26T01:27:33.627Z,21.48
2022-08-26T01:32:38.855Z,21.45
2022-08-26T01:37:42.382Z,21.43
2022-08-26T01:42:47.000Z,21.34
2022-08-26T01:47:56.770Z,21.28
2022-08-26T01:53:07.779Z,21.33
2022-08-26T01:58:28.679Z,21.33
2022-08-26T02:03:34.059Z,21.27
2022-08-26T02:08:48.130Z,21.18
2022-08-26T02:14:03.099Z,21.11
2022-08-26T02:19:17.233Z,21.02
2022-08-26T02:24:29.419Z,20.97
2022-08-26T02:29:41.690Z,20.97
2022-08-26T02:34:47.066Z,20.96
2022-08-26T02:39:50.337Z,20.95
2022-08-26T02:44:56.334Z,20.88
2022-08-26T02:50:00.616Z,20.85
2022-08-26T02:55:07.260Z,20.85
2022-08-26T03:00:14.937Z,20.88
2022-08-26T03:05:19.942Z,20.93
2022-08-26T03:10:25.977Z,20.97
2022-08-26T03:15:29.523Z,20.97
2022-08-26T03:20:34.307Z,20.89
2022-08-26T03:25:38.080Z,20.83
2022-08-26T03:30:44.874Z,20.83
2022-08-26T03:35:50.575Z,20.89
2022-08-26T03:40:54.214Z,20.81
2022-08-26T03:45:57.587Z,20.62
2022-08-26T03:51:03.138Z,20.51
2022-08-26T03:56:06.970Z,20.51
2022-08-26T04:01:12.500Z,20.56
2022-08-26T04:06:17.115Z,20.62
2022-08-26T04:11:24.897Z,20.65
2022-08-26T04:16:29.649Z,20.61
2022-08-26T04:21:33.652Z,20.60
2022-08-26T04:26:39.583Z,20.55
2022-08-26T04:31:48.304Z,20.58
2022-08-26T04:36:52.184Z,20.67
2022-08-26T04:41:55.995Z,20.75
2022-08-26T04:47:02.949Z,20.76
2022-08-26T04:52:06.519Z,20.85
2022-08-26T04:57:11.085Z,20.97
2022-08-26T05:02:14.472Z,21.06
2022-08-26T05:07:17.742Z,21.21
2022-08-26T05:12:21.200Z,21.31
2022-08-26T05:17:24.617Z,21.37
2022-08-26T05:22:27.822Z,21.42
2022-08-26T05:27:30.924Z,21.52
2022-08-26T05:32:36.181Z,21.74
2022-08-26T05:37:39.523Z,21.81
2022-08-26T05:42:43.007Z,21.99
2022-08-26T05:47:46.996Z,22.11
2022-08-26T05:52:51.404Z,22.40
2022-08-26T05:57:54.579Z,22.68
2022-08-26T06:02:58.831Z,22.82
2022-08-26T06:08:14.618Z,22.98
2022-08-26T06:13:31.871Z,23.11
2022-08-26T06:18:42.515Z,23.11
2022-08-26T06:24:07.465Z,23.19
2022-08-26T06:29:10.765Z,23.29
2022-08-26T06:34:18.991Z,23.25
2022-08-26T06:39:22.199Z,23.18
2022-08-26T06:44:26.227Z,23.03
2022-08-26T06:49:29.447Z,22.98
2022-08-26T06:54:33.190Z,23.14
2022-08-26T06:59:36.571Z,23.44
2022-08-26T07:04:40.218Z,23.76
2022-08-26T07:09:43.706Z,23.94
2022-08-26T07:14:47.455Z,24.03
2022-08-26T07:19:51.965Z,24.24
2022-08-26T07:24:56.109Z,24.40
2022-08-26T07:30:00.534Z,24.65
2022-08-26T07:35:06.821Z,24.80
2022-08-26T07:40:10.832Z,24.86
2022-08-26T07:45:15.184Z,25.05
2022-08-26T07:50:18.692Z,25.29
2022-08-26T07:55:23.133Z,25.33
2022-08-26T08:00:26.746Z,25.28
2022-08-26T08:05:33.914Z,25.16
2022-08-26T08:10:38.398Z,25.04
2022-08-26T08:15:42.631Z,25.09
2022-08-26T08:20:59.300Z,25.19
2022-08-26T08:26:11.212Z,25.43
2022-08-26T08:31:55.751Z,25.92
2022-08-26T08:36:53.279Z,26.68
2022-08-26T08:42:25.087Z,27.16
2022-08-26T08:48:00.965Z,27.39
2022-08-26T08:53:13.202Z,27.73
2022-08-26T08:58:33.409Z,28.04
2022-08-26T09:04:28.544Z,28.20
2022-08-26T09:09:49.368Z,28.34
2022-08-26T09:15:11.731Z,28.58
2022-08-26T09:20:43.472Z,29.01
2022-08-26T09:25:57.597Z,29.50
2022-08-26T09:31:34.292Z,30.02
2022-08-26T09:36:45.330Z,30.53
2022-08-26T09:42:01.638Z,30.83
2022-08-26T09:47:08.846Z,31.10
2022-08-26T09:52:26.928Z,31.12
2022-08-26T09:57:35.336Z,31.53
2022-08-26T10:02:47.746Z,31.59
2022-08-26T10:07:53.700Z,31.41
2022-08-26T10:13:16.595Z,31.28
2022-08-26T10:18:33.672Z,31.76
2022-08-26T10:23:50.359Z,31.89
2022-08-26T10:29:15.889Z,31.75
2022-08-26T10:34:21.160Z,31.54
2022-08-26T10:39:57.312Z,31.49
2022-08-26T10:45:15.107Z,31.50
2022-08-26T10:50:31.702Z,31.46
2022-08-26T10:55:45.557Z,31.47
2022-08-26T11:01:18.988Z,31.54
2022-08-26T11:06:31.575Z,31.73
2022-08-26T11:11:41.007Z,31.73
2022-08-26T11:16:52.236Z,31.72
2022-08-26T11:22:24.284Z,31.42
2022-08-26T11:27:27.655Z,31.57
2022-08-26T11:32:34.867Z,32.20
2022-08-26T11:37:48.602Z,32.64
2022-08-26T11:42:59.838Z,32.95
2022-08-26T11:48:23.919Z,33.30
2022-08-26T11:53:30.383Z,33.71
2022-08-26T11:58:35.684Z,34.08
2022-08-26T12:03:51.425Z,34.25
2022-08-26T12:09:01.690Z,34.46
2022-08-26T12:14:15.579Z,34.72
2022-08-26T12:19:32.900Z,34.94
2022-08-26T12:24:44.022Z,35.24
2022-08-26T12:30:13.840Z,35.50
2022-08-26T12:35:21.244Z,35.78
2022-08-26T12:40:37.597Z,35.93
2022-08-26T12:45:55.180Z,36.07
2022-08-26T12:51:00.642Z,35.70
2022-08-26T12:56:41.485Z,35.90
2022-08-26T13:01:45.836Z,35.50
2022-08-26T13:06:49.225Z,35.32
2022-08-26T13:11:55.402Z,35.48
2022-08-26T13:16:58.710Z,35.72
2022-08-26T13:22:02.227Z,36.12
2022-08-26T13:27:08.823Z,35.97
2022-08-26T13:32:12.638Z,35.94
2022-08-26T13:37:16.875Z,35.92
2022-08-26T13:42:21.643Z,36.13
2022-08-26T13:47:27.639Z,36.13
2022-08-26T13:52:31.538Z,35.80
2022-08-26T13:57:35.029Z,35.25
2022-08-26T14:02:38.246Z,34.29
2022-08-26T14:07:41.600Z,33.48
2022-08-26T14:12:46.087Z,33.32
2022-08-26T14:17:50.669Z,32.89
2022-08-26T14:23:13.292Z,32.69
2022-08-26T14:28:18.704Z,32.30
2022-08-26T14:33:29.102Z,32.19
2022-08-26T14:38:34.188Z,32.19
2022-08-26T14:43:43.237Z,32.93
2022-08-26T14:48:46.586Z,33.37
2022-08-26T14:54:10.376Z,33.25
2022-08-26T14:59:25.557Z,33.82
2022-08-26T15:04:30.478Z,34.44
2022-08-26T15:09:37.917Z,34.55
2022-08-26T15:14:41.196Z,34.30
2022-08-26T15:19:44.610Z,34.25
2022-08-26T15:24:48.060Z,34.24
2022-08-26T15:29:57.064Z,34.16
2022-08-26T15:35:00.574Z,33.94
2022-08-26T15:40:07.130Z,33.84
2022-08-26T15:45:11.506Z,33.90
2022-08-26T15:50:29.913Z,34.02
2022-08-26T15:55:33.173Z,34.05
2022-08-26T16:00:38.117Z,33.97
2022-08-26T16:05:43.873Z,33.62
2022-08-26T16:10:50.517Z,33.25
2022-08-26T16:15:54.051Z,33.10
2022-08-26T16:21:12.460Z,33.00
2022-08-26T16:26:22.259Z,32.84
2022-08-26T16:31:25.610Z,32.65
2022-08-26T16:36:29.258Z,32.38
2022-08-26T16:41:33.498Z,32.08
2022-08-26T16:46:36.919Z,31.82
2022-08-26T16:51:40.722Z,31.42
2022-08-26T16:56:44.343Z,31.06
2022-08-26T17:01:47.691Z,30.99
2022-08-26T17:06:51.171Z,30.66
2022-08-26T17:11:54.995Z,30.30
2022-08-26T17:16:58.205Z,29.55
2022-08-26T17:22:01.512Z,29.11
2022-08-26T17:27:09.120Z,28.96
2022-08-26T17:32:12.468Z,28.88
2022-08-26T17:37:17.068Z,28.79
2022-08-26T17:42:20.396Z,28.68
2022-08-26T17:47:24.004Z,28.58
2022-08-26T17:52:29.046Z,28.35
2022-08-26T17:57:32.790Z,28.03
2022-08-26T18:02:44.271Z,27.79
2022-08-26T18:07:48.718Z,27.49
2022-08-26T18:12:52.161Z,27.24
2022-08-26T18:17:55.331Z,26.98
2022-08-26T18:22:58.544Z,26.68
2022-08-26T18:28:01.750Z,26.50
2022-08-26T18:33:05.092Z,26.48
2022-08-26T18:38:11.014Z,26.38
2022-08-26T18:43:14.780Z,26.14
2022-08-26T18:48:17.962Z,25.70
2022-08-26T18:53:21.486Z,25.19
2022-08-26T18:58:25.609Z,25.09
2022-08-26T19:03:29.026Z,25.19
2022-08-26T19:08:32.475Z,25.18
2022-08-26T19:13:36.567Z,25.09
2022-08-26T19:18:41.447Z,25.02
2022-08-26T19:23:45.033Z,24.93
2022-08-26T19:28:49.696Z,24.93
2022-08-26T19:33:53.293Z,24.95
2022-08-26T19:38:57.124Z,24.89
2022-08-26T19:44:02.804Z,24.75
2022-08-26T19:49:07.942Z,24.56
2022-08-26T19:54:11.251Z,24.43
2022-08-26T19:59:15.486Z,24.28
2022-08-26T20:04:18.724Z,24.22
2022-08-26T20:09:22.000Z,24.22
2022-08-26T20:14:27.678Z,24.22
2022-08-26T20:19:49.841Z,24.23
2022-08-26T20:24:53.346Z,24.21
2022-08-26T20:29:58.005Z,24.10
2022-08-26T20:35:01.926Z,23.93
2022-08-26T20:40:09.069Z,23.75
2022-08-26T20:45:12.475Z,23.60
2022-08-26T20:50:15.945Z,23.47
2022-08-26T20:55:20.110Z,23.35
2022-08-26T21:00:26.974Z,23.34
2022-08-26T21:05:32.267Z,23.32
2022-08-26T21:10:36.352Z,23.21
2022-08-26T21:15:40.172Z,23.10
2022-08-26T21:20:43.587Z,23.00
2022-08-26T21:25:47.708Z,22.97
2022-08-26T21:30:51.025Z,22.84
2022-08-26T21:35:55.565Z,22.80
2022-08-26T21:41:03.218Z,22.81
2022-08-26T21:46:17.650Z,22.80
2022-08-26T21:51:24.795Z,22.65
2022-08-26T21:56:31.787Z,22.53
2022-08-26T22:01:36.372Z,22.39
2022-08-26T22:06:51.072Z,22.30
2022-08-26T22:11:57.047Z,22.22
2022-08-26T22:17:00.894Z,22.12
2022-08-26T22:22:04.283Z,22.08
2022-08-26T22:27:07.850Z,22.02
2022-08-26T22:32:11.478Z,21.94
2022-08-26T22:37:14.964Z,21.86
2022-08-26T22:42:18.236Z,21.84
2022-08-26T22:47:21.753Z,21.71
2022-08-26T22:52:25.376Z,21.61
2022-08-26T22:57:28.686Z,21.54
2022-08-26T23:02:31.933Z,21.51
2022-08-26T23:07:36.739Z,21.49
2022-08-26T23:12:40.290Z,21.44
2022-08-26T23:17:43.568Z,21.35
2022-08-26T23:22:46.896Z,21.27
2022-08-26T23:27:50.595Z,21.20
2022-08-26T23:32:54.836Z,21.19
2022-08-26T23:37:58.939Z,21.24
2022-08-26T23:43:06.760Z,21.25
2022-08-26T23:48:10.179Z,21.10
2022-08-26T23:53:20.375Z,21.01
2022-08-26T23:58:24.194Z,20.87
